• Join FlightAware (Why Join?)
  • Login
  • US Flag 
04:33PM EDT


 

Airport Tracker/Info


-or-


 

Live Flight TrackerFlight Track Log ✈ N129AC ✈ 02-Apr-2014 ✈ CYYZ - KHOU

Flight Track Log - Related Links

Times and Time Zones

All times are in EDT time to prevent confusion due to time zone crossing. See the N129AC flight status page for this flight to view local times or setup timezone preferences in your user account.

Time Position Orientation Groundspeed Altitude Reporting Facility
EDT Latitude Longitude Course Direction KTS MPH feet Rate Location/Type
11:51PM 43.6790 -79.6568 227° Southwest 164 189 700  Level FlightAware ADS-B (CYYZ)
11:51PM 43.6712 -79.6687 232° Southwest 171 197 1,400 2,880 Climbing FlightAware ADS-B (CYYZ)
11:51PM 43.6641 -79.6823 234° Southwest 176 203 2,100 2,400 Climbing FlightAware ADS-B (CYYZ)
11:51PM 43.6562 -79.6964 233° Southwest 198 228 2,600 1,800 Climbing FlightAware ADS-B (CYYZ)
11:52PM 43.6475 -79.7120 233° Southwest 217 250 3,000 2,400 Climbing FlightAware ADS-B (CYYZ)
11:52PM 43.6387 -79.7287 234° Southwest 222 255 3,800 2,580 Climbing FlightAware ADS-B (CYYZ)
11:52PM 43.6289 -79.7465 234° Southwest 242 278 4,300 2,160 Climbing FlightAware ADS-B (CYYZ)
11:52PM 43.6195 -79.7659 238° Southwest 251 289 4,900 3,000 Climbing FlightAware ADS-B (CYYZ)
11:53PM 43.6099 -79.7858 236° Southwest 253 291 5,800 3,180 Climbing FlightAware ADS-B (CYYZ)
11:53PM 43.5994 -79.8042 228° Southwest 263 303 6,500 3,180 Climbing FlightAware ADS-B (CYYZ)
11:53PM 43.5851 -79.8233 223° Southwest 267 307 7,400 3,480 Climbing FlightAware ADS-B (CYYZ)
11:53PM 43.5883 -79.8194 223° Southwest 267 307 7,500 3,360 Climbing FlightAware ADS-B (CYKF)
11:53PM 43.5711 -79.8401 221° Southwest 269 310 8,300 3,600 Climbing FlightAware ADS-B (CYYZ)
11:54PM 43.5572 -79.8574 223° Southwest 268 308 9,200 3,480 Climbing FlightAware ADS-B (CYYZ)
11:54PM 43.5434 -79.8741 222° Southwest 269 310 10,000 2,400 Climbing FlightAware ADS-B (CYYZ)
11:54PM 43.5278 -79.8931 222° Southwest 285 328 10,500 1,560 Climbing FlightAware ADS-B
11:54PM 43.5139 -79.9099 222° Southwest 303 349 10,800 1,200 Climbing FlightAware ADS-B (CYYZ)
11:55PM 43.4964 -79.9316 222° Southwest 323 372 11,100 1,380 Climbing FlightAware ADS-B
11:55PM 43.4863 -79.9442 223° Southwest 334 384 11,400 1,800 Climbing FlightAware ADS-B (CZBA)
11:55PM 43.4806 -79.9513 223° Southwest 335 386 11,500 3,240 Climbing FlightAware ADS-B (CYYZ)
11:55PM 43.4492 -79.9896 221° Southwest 335 386 13,100 3,240 Climbing FlightAware ADS-B (CZBA)
11:55PM 43.4463 -79.9934 221° Southwest 335 386 13,200 3,240 Climbing FlightAware ADS-B (CYYZ)
11:56PM 43.4136 -80.0325 222° Southwest 337 388 14,800 3,480 Climbing FlightAware ADS-B
11:56PM 43.4113 -80.0353 222° Southwest 337 388 14,900 2,700 Climbing FlightAware ADS-B (CYYZ)
11:56PM 43.3752 -80.0795 222° Southwest 348 400 16,300 3,000 Climbing FlightAware ADS-B (CYYZ)
11:56PM 43.3696 -80.0864 222° Southwest 349 402 16,700 2,880 Climbing FlightAware ADS-B
11:57PM 43.3392 -80.1235 222° Southwest 356 410 17,700 2,460 Climbing FlightAware ADS-B (CYYZ)
11:57PM 43.3345 -80.1292 222° Southwest 359 413 18,000 2,760 Climbing FlightAware ADS-B
11:57PM 43.3022 -80.1690 222° Southwest 365 420 19,100 2,700 Climbing FlightAware ADS-B (CYYZ)
11:58PM 43.2950 -80.1779 222° Southwest 366 421 19,400 2,400 Climbing FlightAware ADS-B (CZBA)
11:58PM 43.2638 -80.2165 223° Southwest 374 430 20,300 2,340 Climbing FlightAware ADS-B (CYYZ)
11:58PM 43.2434 -80.2416 222° Southwest 379 436 20,900 2,400 Climbing FlightAware ADS-B (CYKF)
11:58PM 43.2250 -80.2639 222° Southwest 382 440 21,500 2,580 Climbing FlightAware ADS-B (CYYZ)
11:59PM 43.1852 -80.3122 222° Southwest 384 442 22,800 2,580 Climbing FlightAware ADS-B (CYYZ)
11:59PM 43.1449 -80.3611 222° Southwest 385 443 24,100 2,520 Climbing FlightAware ADS-B (CYYZ)
12:00AM 43.1524 -80.3520 222° Southwest 389 448 24,600 1,980 Climbing FlightAware ADS-B (CZBA)
12:00AM 43.1043 -80.4101 222° Southwest 395 455 25,100 1,740 Climbing FlightAware ADS-B (CYYZ)
12:00AM 43.0889 -80.4287 222° Southwest 400 460 25,500 1,560 Climbing FlightAware ADS-B (CYKF)
12:00AM 43.0628 -80.4606 222° Southwest 407 468 25,900 1,800 Climbing FlightAware ADS-B (CYYZ)
12:01AM 43.1155 -80.3966 221° Southwest 410 472 26,400 2,160 Climbing FlightAware ADS-B
12:01AM 43.0205 -80.5113 222° Southwest 406 467 27,000 2,880 Climbing FlightAware ADS-B (CYYZ)
12:01AM 42.9785 -80.5616 222° Southwest 388 447 28,700 3,360 Climbing FlightAware ADS-B (CYYZ)
12:02AM 42.9388 -80.6086 223° Southwest 368 423 30,400 3,240 Climbing FlightAware ADS-B (CYYZ)
12:02AM 42.9200 -80.6300 223° Southwest 359 413 31,100 2,760 Climbing FlightAware ADS-B (CYKF)
12:02AM 42.8982 -80.6556 225° Southwest 352 405 31,800 2,040 Climbing FlightAware ADS-B (CYYZ)
12:03AM 42.8635 -80.7018 224° Southwest 352 405 32,700 1,500 Climbing FlightAware ADS-B (CYYZ)
12:03AM 42.8577 -80.7092 224° Southwest 353 406 33,000 960 Climbing FlightAware ADS-B (CYKF)
12:03AM 42.8273 -80.7473 221° Southwest 363 418 33,200 960 Climbing FlightAware ADS-B (CYYZ)
12:04AM 42.7888 -80.7916 221° Southwest 371 427 33,700 900 Climbing FlightAware ADS-B (CYYZ)
12:04AM 42.8577 -80.7092 222° Southwest 360 414 33,800 1,200 Climbing FlightAware ADS-B (CYKF)
12:04AM 42.7488 -80.8378 221° Southwest 370 426 34,300 1,560 Climbing FlightAware ADS-B (CYYZ)
12:05AM 42.7097 -80.8834 221° Southwest 366 421 35,100 1,500 Climbing FlightAware ADS-B (CYYZ)
12:05AM 42.6687 -80.9248 216° Southwest 370 426 35,800 720 Climbing FlightAware ADS-B (CYYZ)
12:06AM 42.6213 -80.9708 216° Southwest 372 428 35,900 120 Climbing FlightAware ADS-B (CYYZ)
12:07AM 42.5713 -81.0189 216° Southwest 369 425 36,000 60 Climbing FlightAware ADS-B (CYYZ)
12:07AM 42.5294 -81.0582 216° Southwest 368 423 36,000  Level FlightAware ADS-B (CYYZ)
12:08AM 42.4884 -81.0988 217° Southwest 368 423 36,000  Level FlightAware ADS-B (CYYZ)
12:08AM 42.4463 -81.1395 216° Southwest 369 425 36,000  Level FlightAware ADS-B (CYYZ)
12:09AM 42.4053 -81.1785 216° Southwest 369 425 36,000  Level FlightAware ADS-B (CYYZ)
12:09AM 42.3626 -81.2197 216° Southwest 369 425 36,000  Level FlightAware ADS-B (CYYZ)
12:10AM 42.3207 -81.2601 216° Southwest 370 426 36,000  Level FlightAware ADS-B (CYYZ)
12:10AM 42.2797 -81.2987 216° Southwest 370 426 36,000  Level FlightAware ADS-B (CYYZ)
12:11AM 42.2376 -81.3389 216° Southwest 370 426 36,000  Level FlightAware ADS-B (CYYZ)
12:11AM 42.1952 -81.3778 216° Southwest 371 427 36,000  Level FlightAware ADS-B (CYYZ)
12:12AM 42.1521 -81.4201 217° Southwest 370 426 36,000  Level FlightAware ADS-B (CYYZ)
12:12AM 42.1095 -81.4607 216° Southwest 372 428 36,000  Level FlightAware ADS-B (CYYZ)
12:13AM 42.0727 -81.4954 216° Southwest 373 429 36,000  Level FlightAware ADS-B (CYYZ)
12:13AM 42.0373 -81.5287 216° Southwest 372 428 36,000  Level FlightAware ADS-B (CYYZ)
12:15AM 41.8782 -81.6782 215° Southwest 373 429 36,000  Level FlightAware ADS-B (CYYZ)
12:16AM 41.7915 -81.7727 228° Southwest 358 412 36,000  Level FlightAware ADS-B (CYYZ)
12:16AM 41.7750 -81.7967 227° Southwest 359 413 36,000  Level FlightAware ADS-B (CYYZ)
12:17AM 41.7266 -81.8636 227° Southwest 358 412 36,000  Level FlightAware ADS-B (CYYZ)
12:17AM 41.6883 -81.9165 227° Southwest 357 411 36,000  Level FlightAware ADS-B (CYYZ)
12:18AM 41.6547 -81.9640 227° Southwest 357 411 36,000  Level FlightAware ADS-B (CYYZ)
12:18AM 41.6258 -82.0044 227° Southwest 357 411 36,000  Level FlightAware ADS-B (CYYZ)
12:41AM 40.0336 -84.1398 225° Southwest 359 413 36,000  Level FlightAware ADS-B (KPMH)
12:46AM 39.7195 -84.5437 224° Southwest 357 411 36,000  Level FlightAware ADS-B (KPMH)
12:46AM 39.6950 -84.5745 224° Southwest 356 410 36,000  Level FlightAware ADS-B (KPMH)
12:48AM 39.5918 -84.6981 209° Southwest 366 421 36,000  Level FlightAware ADS-B (KPMH)
12:49AM 39.4836 -84.7753 209° Southwest 368 423 36,000  Level FlightAware ADS-B (KPMH)
12:49AM 39.4395 -84.8073 208° Southwest 368 423 36,000  Level FlightAware ADS-B (KPMH)
12:50AM 39.3865 -84.8459 212° Southwest 363 418 36,000  Level FlightAware ADS-B (KCVG)
12:51AM 39.3025 -84.9123 212° Southwest 364 419 36,000  Level FlightAware ADS-B (KCVG)
12:51AM 39.2346 -84.9667 212° Southwest 367 422 36,000  Level FlightAware ADS-B (KCVG)
12:52AM 39.1826 -85.0084 212° Southwest 369 425 36,000  Level FlightAware ADS-B (KPMH)
12:53AM 39.1341 -85.0478 212° Southwest 370 426 36,000  Level FlightAware ADS-B (KPMH)
12:53AM 39.1170 -85.0618 217° Southwest 366 421 36,000  Level FlightAware ADS-B (KBRY)
12:53AM 39.0967 -85.0857 226° Southwest 357 411 36,000  Level FlightAware ADS-B (KPMH)
12:54AM 39.0401 -85.1612 226° Southwest 359 413 36,000  Level FlightAware ADS-B (KBRY)
12:54AM 39.0123 -85.1971 225° Southwest 359 413 36,000  Level FlightAware ADS-B (KPMH)
12:55AM 38.9685 -85.2529 225° Southwest 361 415 36,000  Level FlightAware ADS-B (KCVG)
12:56AM 38.9307 -85.2999 225° Southwest 361 415 36,000  Level FlightAware ADS-B (KCVG)
12:56AM 38.8856 -85.3578 225° Southwest 363 418 36,000  Level FlightAware ADS-B (KPMH)
12:57AM 38.8540 -85.3978 225° Southwest 364 419 36,000  Level FlightAware ADS-B (KCVG)
12:57AM 38.8284 -85.4301 225° Southwest 363 418 36,000  Level FlightAware ADS-B (KCVG)
12:58AM 38.7733 -85.4994 225° Southwest 370 426 36,000  Level FlightAware ADS-B (KCVG)
12:58AM 38.7211 -85.5648 225° Southwest 371 427 36,000  Level FlightAware ADS-B (KCVG)
12:59AM 38.6820 -85.6148 224° Southwest 373 429 36,000  Level FlightAware ADS-B (KBRY)
01:00AM 38.6120 -85.7025 225° Southwest 375 432 36,000  Level FlightAware ADS-B (KCVG)
01:01AM 38.5338 -85.8005 225° Southwest 378 435 36,000  Level FlightAware ADS-B (KCVG)
01:01AM 38.4964 -85.8473 224° Southwest 381 438 36,000  Level FlightAware ADS-B (KCVG)
01:02AM 38.4550 -85.8982 224° Southwest 381 438 36,000  Level FlightAware ADS-B
01:03AM 38.4087 -85.9560 224° Southwest 380 437 36,000  Level FlightAware ADS-B
01:03AM 38.3605 -86.0149 225° Southwest 378 435 36,000  Level FlightAware ADS-B (KBRY)
01:04AM 38.3186 -86.0678 225° Southwest 377 434 36,000  Level FlightAware ADS-B
01:04AM 38.2846 -86.1102 224° Southwest 376 433 36,000  Level FlightAware ADS-B
01:05AM 38.2379 -86.1675 224° Southwest 371 427 36,000  Level FlightAware ADS-B
01:05AM 38.2000 -86.2144 224° Southwest 369 425 36,000  Level FlightAware ADS-B
01:06AM 38.1567 -86.2676 224° Southwest 366 421 36,000  Level FlightAware ADS-B
01:07AM 38.1229 -86.3088 224° Southwest 363 418 36,000  Level FlightAware ADS-B
01:07AM 38.0858 -86.3548 224° Southwest 364 419 36,000  Level FlightAware ADS-B
01:08AM 38.0443 -86.4047 224° Southwest 365 420 36,000  Level FlightAware ADS-B
01:08AM 38.0110 -86.4463 225° Southwest 365 420 36,000  Level FlightAware ADS-B
01:09AM 37.9708 -86.4955 224° Southwest 366 421 36,000  Level FlightAware ADS-B
01:09AM 37.9276 -86.5486 224° Southwest 367 422 36,000  Level FlightAware ADS-B
01:10AM 37.8829 -86.6025 224° Southwest 366 421 36,000  Level FlightAware ADS-B
01:10AM 37.8453 -86.6480 224° Southwest 368 423 36,000  Level FlightAware ADS-B
01:11AM 37.8134 -86.6873 224° Southwest 372 428 36,000  Level FlightAware ADS-B
01:12AM 37.7322 -86.7766 208° Southwest 382 440 36,000  Level FlightAware ADS-B
01:12AM 37.6595 -86.8097 195° South 391 450 36,000  Level FlightAware ADS-B (KBRY)
01:13AM 37.6041 -86.8284 195° South 389 448 36,000  Level FlightAware ADS-B
01:14AM 37.5211 -86.8559 195° South 389 448 36,000  Level FlightAware ADS-B
01:14AM 37.4689 -86.8727 195° South 391 450 36,000  Level FlightAware ADS-B
01:15AM 37.3925 -86.8973 195° South 390 449 36,000  Level FlightAware ADS-B
01:16AM 37.3381 -86.9158 196° South 390 449 36,000  Level FlightAware ADS-B
01:16AM 37.2709 -86.9393 196° South 389 448 36,000  Level FlightAware ADS-B
02:01AM 33.6659 -90.9695 226° Southwest 396 456 36,000  Level FlightAware ADS-B (KCWS)
02:14AM 32.6905 -92.1619 226° Southwest 395 455 36,000  Level FlightAware ADS-B (KHOU)
02:15AM 32.6495 -92.2112 225° Southwest 394 453 36,000  Level FlightAware ADS-B (KHOU)
02:15AM 32.6107 -92.2569 226° Southwest 393 452 36,000  Level FlightAware ADS-B (KHOU)
02:16AM 32.5788 -92.2955 226° Southwest 392 451 36,000  Level FlightAware ADS-B (KHOU)
02:16AM 32.5725 -92.3028 226° Southwest 392 451 36,000  Level FlightAware ADS-B (KHOU)
02:17AM 32.4963 -92.3940 226° Southwest 391 450 36,000  Level FlightAware ADS-B (KHOU)
02:17AM 32.4608 -92.4373 225° Southwest 390 449 36,000  Level FlightAware ADS-B (KHOU)
02:18AM 32.4203 -92.4848 225° Southwest 389 448 36,000  Level FlightAware ADS-B (KHOU)
02:18AM 32.3928 -92.5171 225° Southwest 389 448 36,000  Level FlightAware ADS-B (KDTN)
02:19AM 32.3714 -92.5428 226° Southwest 387 445 36,000  Level FlightAware ADS-B (KHOU)
02:19AM 32.3116 -92.6136 226° Southwest 386 444 36,000  Level FlightAware ADS-B (KHOU)
02:20AM 32.2703 -92.6627 225° Southwest 386 444 36,000  Level FlightAware ADS-B (KHOU)
02:20AM 32.2499 -92.6869 225° Southwest 385 443 36,000  Level FlightAware ADS-B (KDTN)
02:20AM 32.2582 -92.6771 225° Southwest 386 444 36,000  Level FlightAware ADS-B (KHOU)
02:21AM 32.2100 -92.7342 225° Southwest 384 442 36,000  Level FlightAware ADS-B (KDTN)
02:21AM 32.2092 -92.7351 226° Southwest 383 441 36,000  Level FlightAware ADS-B (KHOU)
02:21AM 32.1570 -92.7971 225° Southwest 382 440 36,000  Level FlightAware ADS-B (KHOU)
02:22AM 32.1434 -92.8134 225° Southwest 383 441 36,000  Level FlightAware ADS-B (KHOU)
02:22AM 32.0799 -92.8872 225° Southwest 382 440 36,000  Level FlightAware ADS-B (KDTN)
02:23AM 32.0531 -92.9189 225° Southwest 381 438 36,000  Level FlightAware ADS-B (KHOU)
02:23AM 32.0375 -92.9372 225° Southwest 381 438 36,000  Level FlightAware ADS-B (KHOU)
02:23AM 31.9978 -92.9834 225° Southwest 381 438 36,000  Level FlightAware ADS-B (KDTN)
02:23AM 31.9953 -92.9863 226° Southwest 381 438 36,000  Level FlightAware ADS-B (KHOU)
02:25AM 31.9069 -93.0908 225° Southwest 382 440 36,000  Level FlightAware ADS-B (KHOU)
02:25AM 31.8758 -93.1268 225° Southwest 384 442 36,000  Level FlightAware ADS-B (KDTN)
02:25AM 31.8609 -93.1435 225° Southwest 383 441 36,000  Level FlightAware ADS-B (KHOU)
02:26AM 31.8231 -93.1883 226° Southwest 383 441 36,000  Level FlightAware ADS-B (KHOU)
02:26AM 31.8035 -93.2113 225° Southwest 385 443 36,000  Level FlightAware ADS-B (KHOU)
02:27AM 31.7441 -93.2803 225° Southwest 386 444 36,000  Level FlightAware ADS-B (KHOU)
02:27AM 31.7416 -93.2834 225° Southwest 386 444 36,000  Level FlightAware ADS-B (KDTN)
02:27AM 31.7060 -93.3255 225° Southwest 387 445 36,000  Level FlightAware ADS-B (KHOU)
02:27AM 31.6973 -93.3356 225° Southwest 388 447 36,000  Level FlightAware ADS-B (KDTN)
02:28AM 31.6682 -93.3687 225° Southwest 388 447 36,000  Level FlightAware ADS-B (KHOU)
02:28AM 31.6387 -93.4025 225° Southwest 390 449 36,000  Level FlightAware ADS-B (KDTN)
02:28AM 31.6286 -93.4144 225° Southwest 390 449 36,000  Level FlightAware ADS-B (KHOU)
02:29AM 31.5944 -93.4542 225° Southwest 390 449 36,000  Level FlightAware ADS-B (KHOU)
02:29AM 31.5551 -93.4988 225° Southwest 392 451 36,000  Level FlightAware ADS-B (KDTN)
02:29AM 31.5577 -93.4962 225° Southwest 392 451 36,000  Level FlightAware ADS-B (KHOU)
02:30AM 31.5194 -93.5405 226° Southwest 393 452 36,000  Level FlightAware ADS-B (KHOU)
02:30AM 31.4743 -93.5932 225° Southwest 395 455 36,000  Level FlightAware ADS-B (KHOU)
02:31AM 31.4372 -93.6361 225° Southwest 395 455 36,000  Level FlightAware ADS-B (KHOU)
02:31AM 31.4079 -93.6710 225° Southwest 395 455 36,000  Level FlightAware ADS-B (KHOU)
02:32AM 31.3582 -93.7270 225° Southwest 393 452 36,000  Level FlightAware ADS-B (KHOU)
02:32AM 31.3182 -93.7726 225° Southwest 393 452 36,000  Level FlightAware ADS-B (KHOU)
02:33AM 31.2810 -93.8147 225° Southwest 394 453 36,000  Level FlightAware ADS-B (KHOU)
02:33AM 31.2435 -93.8585 225° Southwest 395 455 36,000  Level FlightAware ADS-B (KHOU)
02:33AM 31.2329 -93.8708 225° Southwest 397 457 36,000  Level FlightAware ADS-B (KDTN)
02:34AM 31.2005 -93.9081 225° Southwest 396 456 36,000  Level FlightAware ADS-B (KHOU)
02:34AM 31.1783 -93.9331 225° Southwest 397 457 36,000  Level FlightAware ADS-B (KDTN)
02:34AM 31.1632 -93.9504 225° Southwest 396 456 36,000  Level FlightAware ADS-B (KHOU)
02:35AM 31.1254 -93.9937 225° Southwest 395 455 36,000  Level FlightAware ADS-B (KHOU)
02:35AM 31.0844 -94.0401 225° Southwest 392 451 36,000  Level FlightAware ADS-B (KHOU)
02:36AM 31.0463 -94.0835 225° Southwest 392 451 36,000 -480 Level FlightAware ADS-B (KHOU)
02:36AM 30.9991 -94.1374 225° Southwest 392 451 35,500 -900 Descending FlightAware ADS-B (KHOU)
02:37AM 30.9600 -94.1819 225° Southwest 398 458 35,000 -960 Descending FlightAware ADS-B (KHOU)
02:37AM 30.9215 -94.2258 225° Southwest 401 461 34,600 -900 Descending FlightAware ADS-B (KHOU)
02:38AM 30.8798 -94.2727 225° Southwest 406 467 34,100 -1,020 Descending FlightAware ADS-B (KHOU)
02:38AM 30.8391 -94.3188 225° Southwest 403 464 33,600 -1,740 Descending FlightAware ADS-B (KHOU)
02:39AM 30.8031 -94.3594 225° Southwest 400 460 32,400 -3,120 Descending FlightAware ADS-B (KHOU)
02:39AM 30.7593 -94.4088 225° Southwest 403 464 30,500 -3,360 Descending FlightAware ADS-B (KHOU)
02:40AM 30.7195 -94.4541 225° Southwest 400 460 29,000 -2,820 Descending FlightAware ADS-B (KHOU)
02:40AM 30.6802 -94.4984 225° Southwest 392 451 27,700 -2,640 Descending FlightAware ADS-B (KHOU)
02:41AM 30.6414 -94.5422 225° Southwest 383 441 26,400 -2,580 Descending FlightAware ADS-B (KHOU)
02:41AM 30.6045 -94.5834 225° Southwest 375 432 25,200 -2,520 Descending FlightAware ADS-B (KHOU)
02:42AM 30.5670 -94.6255 225° Southwest 367 422 23,900 -2,460 Descending FlightAware ADS-B (KHOU)
02:42AM 30.5298 -94.6671 225° Southwest 359 413 22,700 -2,400 Descending FlightAware ADS-B (KHOU)
02:43AM 30.4946 -94.7066 225° Southwest 352 405 21,500 -2,340 Descending FlightAware ADS-B (KHOU)
02:43AM 30.4615 -94.7440 225° Southwest 345 397 20,400 -2,340 Descending FlightAware ADS-B (KHOU)
02:44AM 30.4258 -94.7842 225° Southwest 339 390 19,200 -2,340 Descending FlightAware ADS-B (KHOU)
02:44AM 30.3930 -94.8203 225° Southwest 333 383 18,100 -2,220 Descending FlightAware ADS-B (KHOU)
02:45AM 30.3595 -94.8584 225° Southwest 326 375 17,000 -2,100 Descending FlightAware ADS-B (KHOU)
02:45AM 30.3274 -94.8939 224° Southwest 320 368 16,000 -2,040 Descending FlightAware ADS-B (KHOU)
02:46AM 30.2967 -94.9272 224° Southwest 313 360 15,000 -2,160 Descending FlightAware ADS-B (KHOU)
02:46AM 30.2661 -94.9612 225° Southwest 306 352 13,900 -2,100 Descending FlightAware ADS-B (KHOU)
02:47AM 30.2344 -94.9967 225° Southwest 299 344 12,900 -1,980 Descending FlightAware ADS-B (KHOU)
02:47AM 30.2055 -95.0294 225° Southwest 292 336 11,900 -2,040 Descending FlightAware ADS-B (KHOU)
02:48AM 30.1765 -95.0609 224° Southwest 286 329 10,900 -1,620 Descending FlightAware ADS-B (KHOU)
02:48AM 30.1484 -95.0924 225° Southwest 268 308 10,300 -840 Descending FlightAware ADS-B (KHOU)
02:49AM 30.1221 -95.1214 225° Southwest 240 276 10,100 -540 Descending FlightAware ADS-B (KHOU)
02:49AM 30.1108 -95.1342 225° Southwest 231 266 9,900 -1,080 Descending FlightAware ADS-B (KHOU)
02:49AM 30.0991 -95.1469 224° Southwest 228 262 9,600 -1,200 Descending FlightAware ADS-B (KHOU)
02:50AM 30.0876 -95.1594 224° Southwest 224 258 9,300 -1,200 Descending FlightAware ADS-B (KHOU)
02:50AM 30.0759 -95.1723 225° Southwest 222 255 9,000 -1,440 Descending FlightAware ADS-B (KHOU)
02:50AM 30.0649 -95.1843 225° Southwest 219 252 8,600 -1,500 Descending FlightAware ADS-B (KHOU)
02:50AM 30.0543 -95.1964 225° Southwest 217 250 8,300 -1,260 Descending FlightAware ADS-B (KHOU)
02:51AM 30.0442 -95.2075 225° Southwest 216 249 8,000 -1,260 Descending FlightAware ADS-B (KHOU)
02:51AM 30.0332 -95.2196 224° Southwest 216 249 7,700 -1,200 Descending FlightAware ADS-B (KHOU)
02:51AM 30.0184 -95.2359 224° Southwest 217 250 7,300 -1,200 Descending FlightAware ADS-B (KHOU)
02:51AM 30.0074 -95.2475 225° Southwest 217 250 7,000 -1,080 Descending FlightAware ADS-B (KHOU)
02:52AM 29.9988 -95.2571 225° Southwest 217 250 6,800 -1,200 Descending FlightAware ADS-B (KROW)
02:52AM 29.9856 -95.2717 225° Southwest 217 250 6,400 -1,320 Descending FlightAware ADS-B (KHOU)
02:52AM 29.9748 -95.2843 225° Southwest 217 250 6,100 -1,440 Descending FlightAware ADS-B (KHOU)
02:52AM 29.9635 -95.2967 225° Southwest 218 251 5,700 -1,440 Descending FlightAware ADS-B (KHOU)
02:53AM 29.9529 -95.3081 225° Southwest 218 251 5,400 -1,260 Descending FlightAware ADS-B (KHOU)
02:53AM 29.9424 -95.3198 225° Southwest 218 251 5,100 -1,080 Descending FlightAware ADS-B (KHOU)
02:53AM 29.9319 -95.3317 225° Southwest 217 250 4,900 -960 Descending FlightAware ADS-B (KHOU)
02:53AM 29.9195 -95.3452 225° Southwest 209 241 4,600 -840 Descending FlightAware ADS-B (KHOU)
02:54AM 29.9163 -95.3486 225° Southwest 205 236 4,500 -660 Descending FlightAware ADS-B (KROW)
02:54AM 29.8996 -95.3670 224° Southwest 194 223 4,300 -780 Descending FlightAware ADS-B (KHOU)
02:54AM 29.8898 -95.3775 222° Southwest 189 217 4,100 -900 Descending FlightAware ADS-B (KHOU)
02:54AM 29.8862 -95.3805 210° Southwest 184 212 4,000 -1,020 Descending FlightAware ADS-B (KHOU)
02:54AM 29.8866 -95.3804 211° Southwest 185 213 4,000 -600 Level FlightAware ADS-B (KCXO)
02:54AM 29.8783 -95.3843 198° South 181 208 3,900 -720 Descending FlightAware ADS-B (KHOU)
02:55AM 29.8747 -95.3856 198° South 180 207 3,800 -1,260 Descending FlightAware ADS-B (KROW)
02:55AM 29.8547 -95.3929 199° South 181 208 3,300 -1,200 Descending FlightAware ADS-B (KHOU)
02:55AM 29.8457 -95.3964 211° Southwest 185 213 3,100 -1,200 Descending FlightAware ADS-B (KCXO)
02:55AM 29.8387 -95.3989 199° South 181 208 2,900 -1,740 Descending FlightAware ADS-B (KHOU)
02:55AM 29.8323 -95.4014 199° South 181 208 2,700 -1,080 Descending FlightAware ADS-B (KROW)
02:56AM 29.8256 -95.4039 199° South 183 211 2,600 -1,320 Descending FlightAware ADS-B (KHOU)
02:56AM 29.8134 -95.4087 200° South 186 214 2,200 -1,020 Descending FlightAware ADS-B (KHOU)
02:56AM 29.8002 -95.4139 200° South 187 215 2,100 -240 Descending FlightAware ADS-B (KROW)
02:56AM 29.7936 -95.4161 193° South 185 213 2,100  Level FlightAware ADS-B (KHOU)
02:56AM 29.7896 -95.4166 181° South 184 212 2,100  Level FlightAware ADS-B (KROW)
02:56AM 29.7851 -95.4163 168° South 183 211 2,100 -720 Level FlightAware ADS-B (KHOU)
02:56AM 29.7827 -95.4156 165° South 182 209 2,000 -480 Descending FlightAware ADS-B (KROW)
02:57AM 29.7729 -95.4125 164° South 170 196 2,000 180 Level FlightAware ADS-B (KHOU)
02:57AM 29.7613 -95.4084 161° South 154 177 2,100 240 Climbing FlightAware ADS-B (KHOU)
02:57AM 29.7585 -95.4074 152° Southeast 153 176 2,100  Level FlightAware ADS-B (KHOU)
02:57AM 29.7573 -95.4065 150° Southeast 154 177 2,100  Level FlightAware ADS-B (KROW)
02:57AM 29.7479 -95.3989 142° Southeast 152 175 2,100  Level FlightAware ADS-B (KROW)
02:57AM 29.7379 -95.3895 136° Southeast 152 175 2,100  Level FlightAware ADS-B (KHOU)
02:58AM 29.7314 -95.3824 135° Southeast 152 175 2,100  Level FlightAware ADS-B (KROW)
02:58AM 29.7233 -95.3730 133° Southeast 152 175 2,100  Level FlightAware ADS-B (KHOU)
02:58AM 29.7173 -95.3658 132° Southeast 148 170 2,100 -600 Level FlightAware ADS-B (KROW)
02:58AM 29.7087 -95.3552 132° Southeast 137 158 1,800 -960 Descending FlightAware ADS-B (KHOU)
02:59AM 29.7020 -95.3469 133° Southeast 133 153 1,600 -840 Descending FlightAware ADS-B (KHOU)
02:59AM 29.6955 -95.3390 133° Southeast 132 152 1,400 -720 Descending FlightAware ADS-B (KHOU)
02:59AM 29.6878 -95.3298 133° Southeast 124 143 1,200 -780 Descending FlightAware ADS-B (KHOU)
03:00AM 29.6819 -95.3227 134° Southeast 124 143 1,000 -660 Descending FlightAware ADS-B (KHOU)
03:00AM 29.6651 -95.3030 134° Southeast 130 150 600 -600 Descending FlightAware ADS-B (KHOU)
03:03AM 29.6454 -95.2789 180° South  Level Estimated